createdAt,value
2022-11-28T00:01:43.040Z,34.53
2022-11-28T00:04:11.509Z,43.40
2022-11-28T00:06:45.370Z,45.22
2022-11-28T00:09:14.461Z,43.97
2022-11-28T00:11:43.798Z,44.20
2022-11-28T00:14:11.389Z,44.10
2022-11-28T00:16:38.873Z,42.17
2022-11-28T00:19:07.172Z,42.50
2022-11-28T00:21:35.511Z,43.63
2022-11-28T00:24:03.385Z,44.70
2022-11-28T00:26:38.405Z,42.20
2022-11-28T00:29:07.827Z,41.70
2022-11-28T00:31:43.288Z,41.95
2022-11-28T00:34:13.961Z,36.53
2022-11-28T00:36:42.453Z,31.95
2022-11-28T00:39:09.632Z,35.90
2022-11-28T00:41:37.005Z,40.05
2022-11-28T00:44:04.096Z,40.03
2022-11-28T00:46:31.128Z,37.58
2022-11-28T00:48:59.197Z,38.85
2022-11-28T00:51:31.215Z,35.95
2022-11-28T00:54:00.681Z,36.85
2022-11-28T00:56:32.684Z,35.03
2022-11-28T00:59:00.103Z,39.13
2022-11-28T01:01:38.547Z,35.08
2022-11-28T01:04:09.633Z,35.88
2022-11-28T01:06:44.848Z,33.63
2022-11-28T01:09:18.097Z,34.60
2022-11-28T01:11:46.798Z,34.50
2022-11-28T01:14:13.916Z,31.60
2022-11-28T01:16:41.092Z,35.75
2022-11-28T01:19:08.695Z,34.35
2022-11-28T01:21:36.315Z,34.42
2022-11-28T01:24:04.483Z,35.58
2022-11-28T01:26:31.875Z,34.95
2022-11-28T01:29:00.604Z,32.92
2022-11-28T01:31:29.777Z,32.72
2022-11-28T01:33:57.907Z,33.17
2022-11-28T01:36:26.923Z,31.38
2022-11-28T01:38:54.174Z,32.67
2022-11-28T01:41:26.111Z,34.42
2022-11-28T01:44:05.410Z,29.83
2022-11-28T01:46:34.118Z,31.55
2022-11-28T01:49:21.908Z,34.95
2022-11-28T01:51:56.455Z,33.55
2022-11-28T01:54:25.854Z,35.22
2022-11-28T01:57:01.494Z,32.47
2022-11-28T01:59:35.063Z,32.70
2022-11-28T02:02:07.856Z,34.90
2022-11-28T02:04:35.360Z,32.40
2022-11-28T02:07:02.632Z,32.60
2022-11-28T02:09:29.676Z,33.45
2022-11-28T02:12:23.393Z,31.65
2022-11-28T02:15:08.492Z,34.50
2022-11-28T02:18:01.924Z,35.53
2022-11-28T02:21:00.034Z,33.95
2022-11-28T02:23:45.757Z,32.25
2022-11-28T02:26:24.931Z,32.78
2022-11-28T02:29:25.549Z,33.90
2022-11-28T02:32:20.357Z,35.85
2022-11-28T02:35:17.063Z,34.85
2022-11-28T02:37:53.014Z,34.17
2022-11-28T02:40:31.143Z,37.55
2022-11-28T02:43:30.784Z,35.60
2022-11-28T02:46:23.405Z,36.00
2022-11-28T02:49:02.443Z,34.40
2022-11-28T02:51:49.286Z,35.33
2022-11-28T02:54:18.619Z,32.88
2022-11-28T02:56:54.561Z,31.27
2022-11-28T02:59:33.666Z,33.25
2022-11-28T03:02:02.065Z,31.60
2022-11-28T03:04:58.147Z,34.70
2022-11-28T03:07:49.919Z,33.75
2022-11-28T03:10:48.900Z,34.78
2022-11-28T03:13:23.319Z,35.63
2022-11-28T03:16:19.363Z,33.38
2022-11-28T03:19:01.422Z,33.53
2022-11-28T03:21:48.794Z,36.17
2022-11-28T03:24:31.646Z,33.28
2022-11-28T03:27:24.741Z,34.55
2022-11-28T03:30:01.172Z,34.67
2022-11-28T03:32:33.852Z,34.75
2022-11-28T03:35:07.931Z,38.05
2022-11-28T03:37:41.353Z,34.83
2022-11-28T03:40:15.830Z,37.00
2022-11-28T03:42:58.044Z,36.17
2022-11-28T03:45:29.792Z,33.58
2022-11-28T03:48:10.334Z,34.03
2022-11-28T03:51:14.767Z,31.23
2022-11-28T03:53:51.871Z,32.05
2022-11-28T03:56:43.861Z,31.75
2022-11-28T03:59:23.816Z,35.30
2022-11-28T04:02:03.874Z,35.30
2022-11-28T04:04:52.613Z,33.15
2022-11-28T04:07:44.537Z,31.70
2022-11-28T04:10:25.181Z,31.20
2022-11-28T04:13:04.977Z,34.50
2022-11-28T04:15:57.699Z,33.80
2022-11-28T04:18:28.175Z,34.03
2022-11-28T04:21:24.729Z,33.25
2022-11-28T04:23:55.682Z,33.25
2022-11-28T04:26:32.264Z,33.25
2022-11-28T04:29:02.870Z,32.70
2022-11-28T04:31:31.512Z,33.17
2022-11-28T04:34:04.998Z,33.92
2022-11-28T04:36:35.742Z,34.03
2022-11-28T04:39:10.054Z,35.00
2022-11-28T04:41:47.066Z,34.40
2022-11-28T04:44:23.156Z,33.28
2022-11-28T04:46:54.968Z,31.60
2022-11-28T04:49:24.234Z,32.17
2022-11-28T04:52:12.319Z,37.00
2022-11-28T04:55:00.039Z,36.05
2022-11-28T04:57:33.827Z,32.13
2022-11-28T05:00:07.201Z,36.00
2022-11-28T05:02:36.137Z,37.20
2022-11-28T05:05:10.773Z,34.75
2022-11-28T05:07:37.928Z,33.17
2022-11-28T05:10:06.899Z,32.58
2022-11-28T05:12:34.142Z,32.35
2022-11-28T05:15:01.295Z,32.97
2022-11-28T05:17:28.598Z,32.65
2022-11-28T05:19:55.663Z,31.10
2022-11-28T05:22:22.851Z,30.20
2022-11-28T05:24:50.056Z,30.90
2022-11-28T05:27:17.546Z,31.27
2022-11-28T05:29:51.870Z,32.45
2022-11-28T05:32:20.345Z,32.92
2022-11-28T05:34:47.663Z,33.13
2022-11-28T05:37:14.736Z,32.38
2022-11-28T05:39:42.134Z,33.10
2022-11-28T05:42:09.281Z,34.53
2022-11-28T05:44:37.613Z,38.60
2022-11-28T05:47:05.181Z,36.00
2022-11-28T05:49:32.360Z,36.58
2022-11-28T05:51:59.417Z,38.13
2022-11-28T05:54:27.335Z,36.40
2022-11-28T05:56:54.438Z,33.97
2022-11-28T05:59:21.959Z,33.38
2022-11-28T06:01:49.404Z,33.10
2022-11-28T06:04:16.626Z,32.47
2022-11-28T06:06:44.103Z,33.65
2022-11-28T06:09:11.351Z,31.92
2022-11-28T06:11:38.625Z,34.40
2022-11-28T06:14:05.993Z,34.33
2022-11-28T06:16:33.375Z,32.33
2022-11-28T06:19:04.372Z,32.85
2022-11-28T06:21:33.082Z,32.83
2022-11-28T06:24:01.249Z,32.42
2022-11-28T06:26:29.358Z,31.23
2022-11-28T06:28:56.439Z,30.80
2022-11-28T06:31:28.372Z,31.05
2022-11-28T06:33:56.888Z,28.53
2022-11-28T06:36:31.219Z,32.72
2022-11-28T06:41:25.396Z,30.55
2022-11-28T06:43:52.415Z,31.73
2022-11-28T06:46:21.924Z,31.33
2022-11-28T06:48:52.359Z,30.90
2022-11-28T06:51:20.643Z,30.20
2022-11-28T06:53:48.034Z,30.75
2022-11-28T06:56:19.250Z,29.55
2022-11-28T06:58:47.472Z,30.35
2022-11-28T07:01:22.095Z,30.73
2022-11-28T07:03:50.207Z,29.48
2022-11-28T07:06:22.235Z,36.78
2022-11-28T07:08:49.859Z,38.72
2022-11-28T07:11:19.541Z,33.40
2022-11-28T07:13:47.911Z,34.42
2022-11-28T07:16:28.346Z,33.65
2022-11-28T07:18:56.962Z,33.70
2022-11-28T07:21:24.444Z,36.10
2022-11-28T07:23:52.305Z,34.22
2022-11-28T07:26:21.694Z,33.28
2022-11-28T07:28:50.268Z,41.72
2022-11-28T07:31:26.998Z,35.65
2022-11-28T07:33:54.411Z,35.95
2022-11-28T07:36:26.579Z,34.65
2022-11-28T07:38:56.894Z,35.10
2022-11-28T07:41:26.794Z,38.03
2022-11-28T07:43:57.749Z,39.08
2022-11-28T07:46:26.115Z,38.65
2022-11-28T07:48:53.678Z,37.47
2022-11-28T07:51:24.641Z,38.70
2022-11-28T07:53:53.193Z,37.47
2022-11-28T07:56:25.343Z,36.55
2022-11-28T07:58:52.980Z,37.47
2022-11-28T08:01:29.287Z,37.63
2022-11-28T08:03:57.085Z,40.35
2022-11-28T08:06:30.652Z,41.65
2022-11-28T08:09:00.450Z,40.60
2022-11-28T08:11:30.174Z,41.75
2022-11-28T08:13:58.196Z,38.38
2022-11-28T08:16:28.311Z,43.35
2022-11-28T08:18:57.192Z,40.13
2022-11-28T08:21:28.696Z,43.33
2022-11-28T08:23:59.552Z,43.60
2022-11-28T08:26:30.588Z,39.08
2022-11-28T08:29:03.246Z,46.17
2022-11-28T08:31:37.587Z,44.35
2022-11-28T08:36:35.474Z,41.28
2022-11-28T08:41:59.757Z,44.70
2022-11-28T08:44:30.471Z,47.83
2022-11-28T08:46:58.139Z,48.85
2022-11-28T08:49:25.405Z,46.45
2022-11-28T08:51:52.509Z,46.30
2022-11-28T08:54:23.290Z,45.83
2022-11-28T08:56:50.768Z,48.05
2022-11-28T08:59:18.100Z,46.63
2022-11-28T09:01:45.317Z,45.58
2022-11-28T09:04:12.492Z,43.80
2022-11-28T09:06:40.387Z,45.50
2022-11-28T09:09:10.138Z,46.22
2022-11-28T09:11:38.276Z,48.60
2022-11-28T09:14:05.767Z,49.83
2022-11-28T09:16:33.006Z,49.92
2022-11-28T09:19:00.199Z,49.40
2022-11-28T09:21:27.420Z,45.30
2022-11-28T09:23:56.774Z,49.92
2022-11-28T09:26:25.471Z,48.88
2022-11-28T09:28:54.145Z,50.10
2022-11-28T09:31:22.856Z,50.72
2022-11-28T09:33:52.576Z,51.95
2022-11-28T09:36:23.208Z,48.92
2022-11-28T09:38:53.825Z,53.70
2022-11-28T09:41:42.675Z,51.78
2022-11-28T09:44:44.483Z,49.40
2022-11-28T09:47:31.056Z,50.97
2022-11-28T09:50:20.910Z,49.22
2022-11-28T09:53:35.094Z,50.42
2022-11-28T09:56:17.466Z,47.22
2022-11-28T09:58:53.227Z,49.00
2022-11-28T10:01:43.626Z,47.30
2022-11-28T10:04:29.565Z,47.35
2022-11-28T10:07:28.104Z,46.58
2022-11-28T10:10:19.473Z,46.33
2022-11-28T10:13:07.750Z,46.08
2022-11-28T10:15:51.952Z,43.35
2022-11-28T10:18:47.455Z,46.45
2022-11-28T10:21:27.295Z,44.55
2022-11-28T10:24:03.964Z,43.67
2022-11-28T10:26:41.923Z,45.83
2022-11-28T10:29:54.314Z,44.15
2022-11-28T10:32:37.296Z,43.25
2022-11-28T10:35:29.692Z,43.33
2022-11-28T10:37:56.906Z,43.33
2022-11-28T10:40:51.984Z,45.58
2022-11-28T10:43:54.455Z,45.10
2022-11-28T10:46:49.470Z,45.65
2022-11-28T10:49:54.392Z,48.53
2022-11-28T10:53:06.983Z,47.30
2022-11-28T10:56:11.857Z,49.00
2022-11-28T10:59:12.802Z,50.00
2022-11-28T11:01:44.681Z,50.28
2022-11-28T11:07:22.661Z,46.22
2022-11-28T11:09:55.838Z,48.88
2022-11-28T11:12:32.566Z,50.60
2022-11-28T11:15:15.414Z,48.45
2022-11-28T11:17:42.654Z,50.10
2022-11-28T11:20:29.225Z,49.03
2022-11-28T11:22:59.455Z,48.20
2022-11-28T11:25:30.261Z,47.63
2022-11-28T11:28:02.041Z,46.25
2022-11-28T11:30:38.812Z,46.00
2022-11-28T11:33:14.499Z,45.60
2022-11-28T11:35:48.831Z,43.63
2022-11-28T11:38:21.339Z,46.45
2022-11-28T11:40:50.876Z,42.20
2022-11-28T11:43:29.798Z,44.20
2022-11-28T11:46:15.241Z,43.20
2022-11-28T11:48:53.442Z,43.78
2022-11-28T11:51:32.730Z,45.35
2022-11-28T11:54:17.346Z,47.40
2022-11-28T11:56:51.219Z,46.22
2022-11-28T11:59:30.994Z,44.45
2022-11-28T12:02:16.723Z,44.00
2022-11-28T12:04:55.384Z,41.42
2022-11-28T12:07:33.987Z,44.28
2022-11-28T12:10:04.577Z,45.55
2022-11-28T12:12:37.109Z,44.75
2022-11-28T12:15:13.257Z,41.92
2022-11-28T12:18:10.614Z,41.30
2022-11-28T12:21:13.646Z,42.20
2022-11-28T12:24:07.493Z,41.58
2022-11-28T12:27:23.786Z,40.42
2022-11-28T12:30:05.986Z,35.15
2022-11-28T12:32:33.297Z,32.60
2022-11-28T12:35:22.210Z,33.25
2022-11-28T12:38:19.660Z,32.08
2022-11-28T12:41:32.145Z,31.95
2022-11-28T12:44:26.656Z,31.30
2022-11-28T12:47:17.662Z,31.63
2022-11-28T12:50:03.347Z,33.05
2022-11-28T12:53:28.388Z,30.95
2022-11-28T12:56:27.820Z,29.17
2022-11-28T12:58:59.860Z,32.63
2022-11-28T13:02:15.698Z,33.28
2022-11-28T13:05:18.098Z,32.70
2022-11-28T13:08:48.521Z,33.00
2022-11-28T13:11:33.792Z,33.58
2022-11-28T13:14:56.656Z,33.60
2022-11-28T13:17:53.494Z,34.33
2022-11-28T13:20:42.630Z,35.28
2022-11-28T13:23:20.815Z,38.80
2022-11-28T13:26:03.806Z,35.15
2022-11-28T13:28:49.676Z,34.90
2022-11-28T13:32:15.918Z,34.97
2022-11-28T13:34:43.543Z,34.30
2022-11-28T13:40:41.202Z,35.05
2022-11-28T13:43:21.200Z,37.05
2022-11-28T13:45:48.868Z,35.78
2022-11-28T13:48:57.382Z,36.75
2022-11-28T13:51:32.094Z,33.92
2022-11-28T13:54:21.679Z,37.05
2022-11-28T13:57:16.863Z,38.33
2022-11-28T14:00:04.610Z,38.05
2022-11-28T14:02:47.230Z,38.40
2022-11-28T14:05:38.762Z,39.17
2022-11-28T14:08:07.509Z,39.88
2022-11-28T14:10:52.976Z,43.55
2022-11-28T14:13:40.465Z,40.00
2022-11-28T14:16:35.589Z,42.58
2022-11-28T14:19:13.220Z,41.20
2022-11-28T14:22:33.270Z,44.35
2022-11-28T14:25:42.969Z,40.90
2022-11-28T14:28:37.879Z,41.60
2022-11-28T14:33:42.920Z,42.08
2022-11-28T14:36:34.401Z,44.88
2022-11-28T14:39:16.636Z,41.83
2022-11-28T14:42:02.776Z,46.17
2022-11-28T14:44:56.717Z,43.28
2022-11-28T14:47:24.024Z,44.40
2022-11-28T14:50:09.636Z,42.70
2022-11-28T14:52:43.000Z,44.42
2022-11-28T14:55:13.111Z,43.33
2022-11-28T14:58:01.845Z,43.45
2022-11-28T15:00:49.543Z,42.28
2022-11-28T15:03:31.613Z,46.15
2022-11-28T15:06:03.909Z,44.17
2022-11-28T15:08:48.944Z,43.78
2022-11-28T15:11:40.367Z,42.33
2022-11-28T15:14:23.228Z,43.47
2022-11-28T15:16:57.008Z,42.80
2022-11-28T15:19:48.311Z,43.72
2022-11-28T15:22:42.154Z,42.67
2022-11-28T15:25:23.491Z,42.90
2022-11-28T15:27:51.720Z,39.92
2022-11-28T15:30:26.981Z,44.78
2022-11-28T15:33:00.248Z,45.05
2022-11-28T15:35:28.967Z,44.80
2022-11-28T15:37:58.325Z,41.92
2022-11-28T15:40:35.937Z,43.55
2022-11-28T15:43:12.622Z,45.35
2022-11-28T15:45:42.845Z,45.47
2022-11-28T15:48:39.340Z,45.72
2022-11-28T15:51:08.598Z,42.03
2022-11-28T15:53:42.624Z,43.15
2022-11-28T15:58:45.505Z,44.03
2022-11-28T16:01:21.873Z,45.00
2022-11-28T16:04:15.415Z,43.47
2022-11-28T16:06:51.054Z,43.25
2022-11-28T16:09:18.606Z,44.85
2022-11-28T16:11:50.680Z,43.28
2022-11-28T16:14:44.196Z,46.13
2022-11-28T16:17:27.271Z,44.38
2022-11-28T16:19:57.147Z,46.03
2022-11-28T16:22:36.806Z,49.35
2022-11-28T16:25:24.498Z,47.38
2022-11-28T16:27:53.571Z,46.10
2022-11-28T16:30:33.203Z,47.58
2022-11-28T16:33:01.446Z,48.63
2022-11-28T16:35:40.926Z,46.10
2022-11-28T16:38:28.137Z,47.22
2022-11-28T16:41:01.738Z,46.70
2022-11-28T16:43:37.774Z,49.63
2022-11-28T16:46:16.285Z,51.45
2022-11-28T16:48:56.645Z,53.35
2022-11-28T16:51:28.156Z,49.67
2022-11-28T16:54:00.725Z,50.70
2022-11-28T16:56:31.467Z,51.17
2022-11-28T16:59:08.190Z,53.03
2022-11-28T17:01:36.766Z,53.55
2022-11-28T17:04:05.486Z,53.40
2022-11-28T17:06:37.633Z,54.88
2022-11-28T17:09:12.046Z,56.67
2022-11-28T17:11:46.575Z,53.08
2022-11-28T17:14:14.566Z,53.50
2022-11-28T17:16:43.507Z,53.63
2022-11-28T17:19:11.689Z,53.38
2022-11-28T17:21:55.842Z,51.60
2022-11-28T17:24:27.325Z,53.10
2022-11-28T17:26:55.606Z,54.03
2022-11-28T17:29:25.591Z,53.20
2022-11-28T17:31:55.456Z,55.55
2022-11-28T17:34:31.399Z,56.67
2022-11-28T17:37:01.161Z,57.72
2022-11-28T17:39:30.723Z,60.75
2022-11-28T17:42:01.364Z,59.03
2022-11-28T17:44:32.486Z,57.60
2022-11-28T17:47:02.380Z,56.75
2022-11-28T17:49:31.230Z,56.10
2022-11-28T17:52:01.498Z,54.72
2022-11-28T17:54:29.736Z,53.25
2022-11-28T17:56:59.040Z,50.22
2022-11-28T17:59:27.275Z,54.58
2022-11-28T18:01:55.075Z,52.65
2022-11-28T18:04:28.911Z,53.03
2022-11-28T18:06:58.843Z,51.47
2022-11-28T18:09:26.928Z,54.15
2022-11-28T18:11:54.532Z,51.60
2022-11-28T18:14:22.341Z,49.47
2022-11-28T18:16:52.102Z,50.63
2022-11-28T18:19:19.900Z,46.72
2022-11-28T18:21:48.120Z,49.17
2022-11-28T18:24:15.842Z,46.03
2022-11-28T18:26:43.359Z,47.97
2022-11-28T18:29:11.031Z,48.22
2022-11-28T18:31:38.689Z,47.25
2022-11-28T18:34:08.200Z,44.38
2022-11-28T18:36:38.361Z,44.28
2022-11-28T18:39:09.902Z,45.40
2022-11-28T18:41:37.832Z,44.63
2022-11-28T18:44:06.634Z,44.47
2022-11-28T18:46:35.567Z,45.50
2022-11-28T18:49:03.554Z,47.03
2022-11-28T18:51:35.574Z,48.58
2022-11-28T18:54:06.837Z,47.92
2022-11-28T18:56:35.092Z,45.63
2022-11-28T18:59:03.561Z,47.30
2022-11-28T19:01:34.439Z,46.88
2022-11-28T19:04:08.781Z,47.33
2022-11-28T19:06:37.518Z,46.85
2022-11-28T19:09:09.629Z,45.80
2022-11-28T19:11:38.618Z,45.65
2022-11-28T19:14:08.269Z,44.92
2022-11-28T19:16:37.801Z,46.28
2022-11-28T19:19:06.629Z,44.10
2022-11-28T19:21:36.665Z,45.42
2022-11-28T19:24:08.069Z,44.40
2022-11-28T19:26:36.093Z,45.30
2022-11-28T19:29:03.339Z,48.58
2022-11-28T19:31:34.625Z,46.75
2022-11-28T19:34:13.599Z,46.05
2022-11-28T19:36:48.120Z,49.08
2022-11-28T19:39:19.313Z,45.50
2022-11-28T19:41:47.475Z,44.65
2022-11-28T19:44:15.717Z,44.63
2022-11-28T19:46:43.619Z,45.83
2022-11-28T19:49:22.708Z,48.00
2022-11-28T19:51:51.147Z,46.92
2022-11-28T19:54:19.919Z,46.97
2022-11-28T19:56:49.229Z,47.83
2022-11-28T19:59:17.554Z,49.85
2022-11-28T20:01:48.304Z,51.65
2022-11-28T20:04:16.464Z,51.15
2022-11-28T20:06:43.541Z,51.28
2022-11-28T20:09:13.945Z,50.10
2022-11-28T20:11:44.280Z,51.22
2022-11-28T20:14:16.369Z,53.22
2022-11-28T20:16:46.868Z,52.88
2022-11-28T20:19:16.156Z,53.83
2022-11-28T20:21:46.172Z,49.20
2022-11-28T20:24:15.025Z,46.50
2022-11-28T20:26:44.050Z,50.95
2022-11-28T20:29:16.161Z,50.95
2022-11-28T20:31:45.878Z,49.67
2022-11-28T20:34:18.021Z,50.05
2022-11-28T20:36:46.162Z,52.80
2022-11-28T20:39:13.969Z,53.92
2022-11-28T20:41:41.155Z,44.53
2022-11-28T20:44:09.469Z,46.40
2022-11-28T20:46:37.044Z,49.60
2022-11-28T20:49:07.610Z,53.72
2022-11-28T20:51:36.044Z,56.95
2022-11-28T20:54:05.884Z,56.28
2022-11-28T20:57:19.582Z,55.92
2022-11-28T20:59:32.543Z,54.85
2022-11-28T21:02:02.071Z,56.97
2022-11-28T21:04:32.004Z,55.95
2022-11-28T21:06:59.059Z,56.60
2022-11-28T21:09:26.169Z,57.28
2022-11-28T21:11:58.862Z,55.53
2022-11-28T21:14:29.227Z,54.78
2022-11-28T21:16:58.238Z,55.72
2022-11-28T21:19:25.569Z,53.88
2022-11-28T21:21:52.695Z,57.13
2022-11-28T21:24:20.116Z,48.33
2022-11-28T21:26:52.892Z,53.97
2022-11-28T21:29:22.296Z,54.17
2022-11-28T21:31:49.467Z,53.20
2022-11-28T21:34:17.658Z,59.15
2022-11-28T21:36:45.423Z,56.35
2022-11-28T21:39:20.111Z,55.03
2022-11-28T21:41:48.304Z,54.60
2022-11-28T21:44:23.052Z,52.30
2022-11-28T21:46:50.194Z,47.88
2022-11-28T21:49:17.873Z,52.25
2022-11-28T21:51:45.089Z,58.70
2022-11-28T21:54:12.795Z,62.08
2022-11-28T21:56:40.417Z,61.30
2022-11-28T21:59:08.431Z,62.20
2022-11-28T22:01:37.051Z,61.88
2022-11-28T22:04:05.292Z,63.00
2022-11-28T22:06:33.246Z,61.08
2022-11-28T22:09:09.232Z,64.82
2022-11-28T22:11:38.734Z,59.40
2022-11-28T22:14:06.018Z,59.50
2022-11-28T22:16:33.428Z,60.25
2022-11-28T22:19:01.248Z,61.92
2022-11-28T22:21:51.771Z,62.78
2022-11-28T22:24:15.946Z,56.03
2022-11-28T22:26:44.227Z,57.17
2022-11-28T22:29:12.444Z,57.30
2022-11-28T22:31:39.830Z,54.45
2022-11-28T22:34:09.364Z,59.78
2022-11-28T22:36:36.812Z,60.97
2022-11-28T22:39:05.088Z,58.88
2022-11-28T22:41:32.318Z,63.42
2022-11-28T22:44:01.796Z,62.15
2022-11-28T22:46:32.178Z,59.83
2022-11-28T22:49:01.477Z,62.42
2022-11-28T22:51:30.488Z,59.85
2022-11-28T22:54:01.077Z,60.95
2022-11-28T22:56:32.354Z,61.22
2022-11-28T22:59:01.589Z,59.90
2022-11-28T23:01:31.633Z,58.47
2022-11-28T23:04:00.795Z,58.13
2022-11-28T23:06:31.448Z,59.08
2022-11-28T23:09:00.874Z,57.08
2022-11-28T23:11:35.338Z,57.97
2022-11-28T23:14:05.328Z,55.88
2022-11-28T23:16:39.722Z,59.38
2022-11-28T23:19:13.185Z,56.15
2022-11-28T23:21:43.153Z,50.40
2022-11-28T23:24:18.390Z,51.83
2022-11-28T23:26:47.489Z,49.72
2022-11-28T23:29:15.908Z,48.25
2022-11-28T23:31:44.459Z,48.75
2022-11-28T23:34:13.251Z,48.67
2022-11-28T23:36:46.672Z,47.17
2022-11-28T23:39:20.909Z,47.50
2022-11-28T23:41:48.791Z,46.28
2022-11-28T23:44:17.880Z,48.22
2022-11-28T23:46:46.034Z,50.50
2022-11-28T23:49:13.793Z,48.40
2022-11-28T23:51:41.369Z,49.72
2022-11-28T23:54:10.362Z,50.03
2022-11-28T23:56:40.180Z,48.30
2022-11-28T23:59:10.218Z,47.25
